This is the latest recevied weather packets stored in our database for station/object K6TTR. If no packets are shown the sender has not sent any weather packets the latest 10 day(s).
| Time | Temp. | Humidity | Pressure | Rain* | Wind** | Luminosity | Snow |
|---|---|---|---|---|---|---|---|
| 1777693430 | 13.33° C | 66% | 1016.5 hPa | 0 mm | - | 0 W/m² | - |
| 1777693114 | 13.33° C | 66% | 1016.3 hPa | 0 mm | - | 0 W/m² | - |
| 1777692819 | 13.89° C | 65% | 1016.2 hPa | 0 mm | - | 0 W/m² | - |
| 1777692525 | 13.89° C | 64% | 1016.2 hPa | 0 mm | - | 0 W/m² | - |
| 1777692230 | 14.44° C | 63% | 1016.2 hPa | 0 mm | - | 0 W/m² | - |
| 1777691917 | 14.44° C | 63% | 1016.2 hPa | 0 mm | - | 0 W/m² | - |
| 1777691623 | 15° C | 61% | 1016.1 hPa | 0 mm | - | 0 W/m² | - |
| 1777691330 | 15° C | 60% | 1016.1 hPa | 0 mm | - | 0 W/m² | - |
| 1777691016 | 15° C | 59% | 1016.1 hPa | 0 mm | - | 0 W/m² | - |
| 1777690722 | 15.56° C | 58% | 1016.1 hPa | 0 mm | - | 0 W/m² | - |
| 1777690428 | 15.56° C | 57% | 1016.1 hPa | 0 mm | - | 5 W/m² | - |
| 1777690113 | 16.11° C | 55% | 1016.1 hPa | 0 mm | - | 7 W/m² | - |
| 1777689821 | 16.67° C | 55% | 1016 hPa | 0 mm | - | 9 W/m² | - |
| 1777689526 | 17.22° C | 53% | 1016 hPa | 0 mm | - | 12 W/m² | - |
| 1777689231 | 17.78° C | 49% | 1016 hPa | 0 mm | - | 18 W/m² | - |
| 1777688913 | 17.78° C | 48% | 1016 hPa | 0 mm | - | 23 W/m² | - |
| 1777688620 | 17.78° C | 46% | 1015.9 hPa | 0 mm | - | 28 W/m² | - |
| 1777688013 | 18.33° C | 45% | 1015.9 hPa | 0 mm | - | 39 W/m² | - |
| 1777687719 | 18.33° C | 44% | 1015.8 hPa | 0 mm | - | 40 W/m² | - |
| 1777674225 | 21.11° C | 27% | 1017.9 hPa | 0 mm | - | 410 W/m² | - |
| 1777673617 | 21.67° C | 26% | 1017.8 hPa | 0 mm | - | 777 W/m² | - |
| 1777673027 | 21.67° C | 25% | 1018 hPa | 0 mm | - | 452 W/m² | - |
| 1777672124 | 21.11° C | 26% | 1018 hPa | 0 mm | - | 853 W/m² | - |
| 1777671830 | 21.11° C | 25% | 1017.3 hPa | 0 mm | - | 738 W/m² | - |
| 1777671219 | 21.67° C | 27% | 1017.4 hPa | 0 mm | - | 647 W/m² | - |
* Rain latest hour (hover to see other rain measurements)
** Current wind speed in m/s (hover to see current wind gust speed)